createdAt,value
2022-08-09T00:01:55.380Z,5.60
2022-08-09T00:06:15.468Z,3.60
2022-08-09T00:08:31.834Z,3.70
2022-08-09T00:12:03.950Z,6.23
2022-08-09T00:15:06.625Z,3.60
2022-08-09T00:18:20.767Z,6.30
2022-08-09T00:21:27.382Z,4.43
2022-08-09T00:24:34.463Z,3.57
2022-08-09T00:27:43.309Z,3.80
2022-08-09T00:30:59.847Z,4.30
2022-08-09T00:34:05.364Z,3.90
2022-08-09T00:37:10.797Z,4.77
2022-08-09T00:40:17.467Z,3.70
2022-08-09T00:44:16.634Z,4.40
2022-08-09T00:46:57.804Z,3.03
2022-08-09T00:50:14.780Z,2.77
2022-08-09T00:53:26.889Z,3.70
2022-08-09T00:56:33.737Z,4.80
2022-08-09T00:59:46.935Z,2.60
2022-08-09T01:02:58.283Z,3.63
2022-08-09T01:06:17.607Z,5.50
2022-08-09T01:09:24.080Z,2.87
2022-08-09T01:12:42.001Z,3.97
2022-08-09T01:15:51.705Z,3.27
2022-08-09T01:19:02.304Z,3.53
2022-08-09T01:22:12.337Z,3.20
2022-08-09T01:25:21.871Z,3.30
2022-08-09T01:28:28.141Z,3.57
2022-08-09T01:32:30.308Z,3.57
2022-08-09T01:35:00.619Z,3.13
2022-08-09T01:38:24.607Z,3.47
2022-08-09T01:41:32.747Z,3.97
2022-08-09T01:44:39.015Z,4.37
2022-08-09T01:47:45.058Z,4.70
2022-08-09T01:50:55.533Z,5.30
2022-08-09T01:54:04.100Z,6.07
2022-08-09T01:57:09.639Z,4.13
2022-08-09T02:00:35.219Z,3.57
2022-08-09T02:03:43.150Z,3.20
2022-08-09T02:07:06.229Z,3.93
2022-08-09T02:10:11.739Z,3.53
2022-08-09T02:13:17.198Z,4.63
2022-08-09T02:16:33.943Z,7.03
2022-08-09T02:19:49.429Z,3.30
2022-08-09T02:22:54.661Z,4.37
2022-08-09T02:26:00.089Z,4.53
2022-08-09T02:29:05.523Z,6.10
2022-08-09T02:32:12.319Z,4.10
2022-08-09T02:35:23.094Z,5.60
2022-08-09T02:38:47.696Z,7.03
2022-08-09T02:41:54.487Z,4.70
2022-08-09T02:45:00.954Z,5.80
2022-08-09T02:48:06.659Z,3.73
2022-08-09T02:51:26.578Z,3.07
2022-08-09T02:54:32.465Z,4.83
2022-08-09T02:57:59.654Z,3.83
2022-08-09T03:01:06.229Z,5.13
2022-08-09T03:04:19.118Z,3.00
2022-08-09T03:07:25.284Z,4.43
2022-08-09T03:10:30.896Z,5.63
2022-08-09T03:13:43.931Z,3.83
2022-08-09T03:17:02.099Z,4.20
2022-08-09T03:20:11.563Z,6.00
2022-08-09T03:23:24.378Z,3.37
2022-08-09T03:26:31.990Z,3.53
2022-08-09T03:29:57.185Z,3.70
2022-08-09T03:33:12.990Z,3.70
2022-08-09T03:39:55.509Z,4.33
2022-08-09T03:43:02.243Z,7.53
2022-08-09T03:46:20.225Z,3.37
2022-08-09T03:49:35.540Z,4.20
2022-08-09T03:52:43.142Z,5.30
2022-08-09T03:55:51.433Z,3.83
2022-08-09T03:58:57.049Z,4.33
2022-08-09T04:02:02.634Z,5.03
2022-08-09T04:05:20.265Z,3.77
2022-08-09T04:08:33.398Z,5.10
2022-08-09T04:11:39.211Z,3.80
2022-08-09T04:15:00.459Z,4.83
2022-08-09T04:18:07.922Z,3.63
2022-08-09T04:21:13.954Z,5.17
2022-08-09T04:24:20.693Z,4.60
2022-08-09T04:27:32.774Z,4.23
2022-08-09T04:30:44.909Z,4.97
2022-08-09T04:33:56.560Z,4.90
2022-08-09T04:37:03.244Z,5.27
2022-08-09T04:40:10.493Z,4.13
2022-08-09T04:43:16.745Z,6.17
2022-08-09T04:46:56.719Z,4.77
2022-08-09T04:49:54.305Z,6.50
2022-08-09T04:53:01.753Z,7.10
2022-08-09T04:56:26.147Z,5.40
2022-08-09T04:59:31.778Z,4.40
2022-08-09T05:02:37.333Z,5.17
2022-08-09T05:05:52.580Z,4.30
2022-08-09T05:09:08.794Z,5.23
2022-08-09T05:12:18.696Z,6.60
2022-08-09T05:15:43.029Z,4.77
2022-08-09T05:18:57.962Z,5.00
2022-08-09T05:22:05.667Z,4.23
2022-08-09T05:25:32.330Z,4.43
2022-08-09T05:28:38.964Z,3.20
2022-08-09T05:31:49.144Z,3.87
2022-08-09T05:34:57.841Z,4.93
2022-08-09T05:38:03.570Z,6.63
2022-08-09T05:41:12.830Z,3.40
2022-08-09T05:44:22.111Z,3.53
2022-08-09T05:47:34.530Z,3.50
2022-08-09T05:51:11.735Z,4.00
2022-08-09T05:54:17.942Z,5.10
2022-08-09T05:57:50.374Z,3.63
2022-08-09T06:00:49.521Z,4.20
2022-08-09T06:03:58.293Z,3.30
2022-08-09T06:07:04.917Z,4.10
2022-08-09T06:10:15.805Z,3.83
2022-08-09T06:13:23.495Z,4.33
2022-08-09T06:16:29.790Z,3.73
2022-08-09T06:19:35.056Z,4.47
2022-08-09T06:22:42.401Z,4.83
2022-08-09T06:25:55.282Z,4.73
2022-08-09T06:29:04.787Z,3.97
2022-08-09T06:33:13.037Z,5.97
2022-08-09T06:35:57.620Z,2.50
2022-08-09T06:39:08.895Z,3.00
2022-08-09T06:42:14.712Z,3.90
2022-08-09T06:46:07.249Z,3.10
2022-08-09T06:48:45.752Z,2.50
2022-08-09T06:51:51.435Z,2.43
2022-08-09T06:54:58.580Z,2.33
2022-08-09T06:58:04.829Z,2.53
2022-08-09T07:01:18.578Z,2.03
2022-08-09T07:04:27.655Z,2.23
2022-08-09T07:07:59.407Z,2.33
2022-08-09T07:10:58.798Z,2.10
2022-08-09T07:14:06.254Z,2.97
2022-08-09T07:17:14.653Z,1.97
2022-08-09T07:20:21.443Z,1.87
2022-08-09T07:23:27.793Z,4.60
2022-08-09T07:26:33.418Z,2.57
2022-08-09T07:29:42.859Z,1.90
2022-08-09T07:32:48.672Z,2.30
2022-08-09T07:35:56.955Z,2.23
2022-08-09T07:39:05.321Z,1.90
2022-08-09T07:42:17.657Z,1.93
2022-08-09T07:45:39.435Z,1.93
2022-08-09T07:48:59.584Z,2.03
2022-08-09T07:52:16.706Z,3.43
2022-08-09T07:55:23.481Z,1.87
2022-08-09T07:58:34.341Z,1.83
2022-08-09T08:01:41.830Z,1.97
2022-08-09T08:04:49.012Z,3.00
2022-08-09T08:08:44.480Z,2.70
2022-08-09T08:12:11.968Z,1.70
2022-08-09T08:14:46.624Z,2.00
2022-08-09T08:17:58.286Z,2.83
2022-08-09T08:21:04.421Z,2.77
2022-08-09T08:24:16.780Z,3.80
2022-08-09T08:27:22.486Z,1.73
2022-08-09T08:30:31.635Z,3.07
2022-08-09T08:33:49.668Z,1.47
2022-08-09T08:37:01.346Z,1.47
2022-08-09T08:40:08.161Z,4.07
2022-08-09T08:43:14.421Z,3.13
2022-08-09T08:46:32.429Z,1.90
2022-08-09T08:49:48.340Z,2.60
2022-08-09T08:52:59.576Z,1.70
2022-08-09T08:56:06.147Z,2.40
2022-08-09T08:59:19.763Z,2.40
2022-08-09T09:02:31.292Z,1.70
2022-08-09T09:05:58.565Z,1.83
2022-08-09T09:09:20.672Z,3.23
2022-08-09T09:12:29.100Z,3.33
2022-08-09T09:15:35.605Z,2.30
2022-08-09T09:18:45.881Z,2.10
2022-08-09T09:21:54.015Z,3.83
2022-08-09T09:26:04.263Z,1.70
2022-08-09T09:29:03.353Z,2.07
2022-08-09T09:32:16.122Z,2.53
2022-08-09T09:35:21.662Z,3.03
2022-08-09T09:38:27.909Z,1.43
2022-08-09T09:41:49.152Z,1.50
2022-08-09T09:44:57.066Z,1.23
2022-08-09T09:48:03.122Z,2.00
2022-08-09T09:51:11.702Z,2.00
2022-08-09T09:54:31.785Z,2.63
2022-08-09T09:58:03.578Z,1.87
2022-08-09T10:01:03.213Z,2.20
2022-08-09T10:04:10.064Z,4.07
2022-08-09T10:07:15.803Z,2.17
2022-08-09T10:10:29.968Z,2.77
2022-08-09T10:13:43.105Z,2.07
2022-08-09T10:16:57.029Z,1.77
2022-08-09T10:20:15.098Z,2.43
2022-08-09T10:23:22.387Z,1.70
2022-08-09T10:26:29.131Z,2.87
2022-08-09T10:30:23.535Z,2.20
2022-08-09T10:34:04.848Z,1.63
2022-08-09T10:36:42.042Z,2.50
2022-08-09T10:39:49.887Z,3.20
2022-08-09T10:42:55.257Z,1.37
2022-08-09T10:46:02.110Z,1.73
2022-08-09T10:49:07.645Z,1.30
2022-08-09T10:52:17.773Z,1.70
2022-08-09T10:55:26.141Z,2.83
2022-08-09T10:58:33.462Z,1.40
2022-08-09T11:03:27.952Z,1.47
2022-08-09T11:05:06.905Z,1.30
2022-08-09T11:08:13.894Z,2.33
2022-08-09T11:11:23.049Z,1.40
2022-08-09T11:14:31.825Z,1.47
2022-08-09T11:17:41.818Z,1.47
2022-08-09T11:20:49.959Z,2.97
2022-08-09T11:23:55.887Z,1.60
2022-08-09T11:27:06.709Z,1.57
2022-08-09T11:30:32.648Z,1.97
2022-08-09T11:33:37.572Z,1.53
2022-08-09T11:36:44.354Z,2.63
2022-08-09T11:39:50.124Z,1.50
2022-08-09T11:42:56.150Z,1.60
2022-08-09T11:46:01.675Z,3.13
2022-08-09T11:49:08.289Z,1.57
2022-08-09T11:52:56.899Z,1.80
2022-08-09T11:55:52.445Z,2.40
2022-08-09T11:59:04.024Z,1.30
2022-08-09T12:02:21.255Z,2.07
2022-08-09T12:05:39.730Z,1.47
2022-08-09T12:08:47.996Z,1.93
2022-08-09T12:12:03.520Z,3.53
2022-08-09T12:15:09.487Z,2.60
2022-08-09T12:18:30.283Z,1.40
2022-08-09T12:21:48.810Z,2.40
2022-08-09T12:25:00.778Z,1.40
2022-08-09T12:29:10.080Z,2.40
2022-08-09T12:32:01.667Z,1.53
2022-08-09T12:34:57.506Z,2.93
2022-08-09T12:38:02.943Z,2.43
2022-08-09T12:41:15.699Z,3.10
2022-08-09T12:44:24.502Z,1.87
2022-08-09T12:47:37.570Z,2.43
2022-08-09T12:50:51.977Z,1.60
2022-08-09T12:53:57.326Z,1.60
2022-08-09T12:57:03.320Z,2.00
2022-08-09T13:00:12.584Z,1.60
2022-08-09T13:03:24.642Z,2.20
2022-08-09T13:06:45.948Z,1.93
2022-08-09T13:09:55.181Z,2.00
2022-08-09T13:13:10.058Z,2.83
2022-08-09T13:16:17.761Z,2.70
2022-08-09T13:19:23.683Z,1.43
2022-08-09T13:23:05.385Z,1.43
2022-08-09T13:26:15.129Z,3.50
2022-08-09T13:29:42.078Z,1.27
2022-08-09T13:32:52.678Z,2.03
2022-08-09T13:36:38.449Z,1.93
2022-08-09T13:41:45.905Z,1.50
2022-08-09T13:44:23.383Z,1.50
2022-08-09T13:47:44.087Z,1.43
2022-08-09T13:50:56.570Z,2.83
2022-08-09T13:54:02.229Z,2.33
2022-08-09T13:57:08.343Z,1.50
2022-08-09T14:00:21.757Z,1.43
2022-08-09T14:04:02.224Z,1.67
2022-08-09T14:07:03.634Z,1.75
2022-08-09T14:24:56.629Z,3.47
2022-08-09T14:28:02.281Z,2.63
2022-08-09T14:31:07.707Z,1.73
2022-08-09T14:34:17.609Z,1.63
2022-08-09T14:37:41.198Z,1.60
2022-08-09T14:41:39.830Z,2.50
2022-08-09T14:44:32.560Z,2.77
2022-08-09T14:47:58.144Z,2.23
2022-08-09T14:51:05.331Z,1.50
2022-08-09T14:54:11.078Z,1.97
2022-08-09T14:57:20.805Z,1.60
2022-08-09T15:00:37.626Z,2.00
2022-08-09T15:03:48.052Z,1.80
2022-08-09T15:06:56.508Z,1.57
2022-08-09T15:10:07.838Z,4.00
2022-08-09T15:13:18.382Z,4.10
2022-08-09T15:16:23.988Z,2.50
2022-08-09T15:19:36.506Z,3.23
2022-08-09T15:22:47.081Z,3.13
2022-08-09T15:25:55.787Z,2.27
2022-08-09T15:29:04.034Z,1.50
2022-08-09T15:32:29.134Z,1.60
2022-08-09T15:35:44.007Z,1.90
2022-08-09T15:38:50.490Z,2.00
2022-08-09T15:41:56.117Z,2.10
2022-08-09T15:45:05.443Z,2.07
2022-08-09T15:48:29.266Z,3.40
2022-08-09T15:52:01.950Z,2.70
2022-08-09T15:55:02.406Z,2.20
2022-08-09T15:58:07.734Z,2.15
2022-08-09T16:01:35.419Z,3.47
2022-08-09T16:04:42.619Z,2.72
2022-08-09T16:07:50.577Z,2.00
2022-08-09T16:10:58.870Z,3.15
2022-08-09T16:14:15.903Z,2.88
2022-08-09T16:17:30.042Z,3.25
2022-08-09T16:20:38.513Z,3.35
2022-08-09T16:23:54.687Z,2.83
2022-08-09T16:27:01.821Z,2.63
2022-08-09T16:30:15.078Z,2.63
2022-08-09T16:33:35.811Z,3.00
2022-08-09T16:36:44.378Z,2.70
2022-08-09T16:40:04.790Z,3.30
2022-08-09T16:43:11.388Z,2.67
2022-08-09T16:46:21.262Z,2.50
2022-08-09T16:50:31.898Z,2.47
2022-08-09T16:52:56.233Z,2.70
2022-08-09T16:56:07.542Z,2.77
2022-08-09T16:59:15.554Z,2.83
2022-08-09T17:02:23.263Z,3.05
2022-08-09T17:08:42.841Z,2.70
2022-08-09T17:11:24.341Z,2.95
2022-08-09T17:14:30.869Z,2.87
2022-08-09T17:17:50.338Z,2.33
2022-08-09T17:20:57.060Z,2.10
2022-08-09T17:24:20.835Z,2.83
2022-08-09T17:27:29.442Z,2.33
2022-08-09T17:30:35.239Z,2.00
2022-08-09T17:33:41.330Z,2.80
2022-08-09T17:36:53.282Z,1.93
2022-08-09T17:39:59.377Z,3.03
2022-08-09T17:43:32.930Z,2.33
2022-08-09T17:46:34.230Z,2.07
2022-08-09T17:49:51.318Z,2.47
2022-08-09T17:53:04.732Z,2.90
2022-08-09T17:56:27.305Z,4.67
2022-08-09T17:59:38.374Z,3.20
2022-08-09T18:02:57.935Z,3.17
2022-08-09T18:06:31.052Z,2.27
2022-08-09T18:09:41.320Z,2.73
2022-08-09T18:13:53.736Z,2.57
2022-08-09T18:16:12.965Z,2.07
2022-08-09T18:20:56.085Z,2.27
2022-08-09T18:22:51.212Z,2.70
2022-08-09T18:25:58.830Z,3.20
2022-08-09T18:30:36.282Z,3.03
2022-08-09T18:32:33.100Z,2.80
2022-08-09T18:35:59.425Z,2.73
2022-08-09T18:39:05.278Z,3.23
2022-08-09T18:42:11.388Z,4.60
2022-08-09T18:45:21.678Z,3.60
2022-08-09T18:48:42.974Z,2.27
2022-08-09T18:51:55.488Z,2.50
2022-08-09T18:55:03.403Z,2.70
2022-08-09T18:58:09.420Z,3.73
2022-08-09T19:01:17.231Z,2.33
2022-08-09T19:04:34.567Z,2.80
2022-08-09T19:07:41.119Z,2.10
2022-08-09T19:10:49.375Z,2.53
2022-08-09T19:14:00.176Z,3.40
2022-08-09T19:17:08.882Z,3.10
2022-08-09T19:20:16.851Z,2.00
2022-08-09T19:24:32.452Z,3.27
2022-08-09T19:26:51.511Z,1.67
2022-08-09T19:30:23.829Z,2.37
2022-08-09T19:33:23.747Z,2.30
2022-08-09T19:36:30.802Z,2.53
2022-08-09T19:40:02.526Z,4.73
2022-08-09T19:43:10.188Z,3.03
2022-08-09T19:46:35.015Z,2.23
2022-08-09T19:50:06.765Z,3.27
2022-08-09T19:53:07.760Z,2.60
2022-08-09T19:56:18.432Z,2.70
2022-08-09T19:59:58.932Z,3.03
2022-08-09T20:04:23.943Z,2.73
2022-08-09T20:06:29.768Z,2.40
2022-08-09T20:09:44.971Z,6.73
2022-08-09T20:12:51.913Z,3.13
2022-08-09T20:16:35.105Z,5.73
2022-08-09T20:19:48.799Z,2.20
2022-08-09T20:22:49.405Z,4.53
2022-08-09T20:25:55.123Z,2.20
2022-08-09T20:29:00.687Z,3.63
2022-08-09T20:32:41.990Z,2.10
2022-08-09T20:35:41.204Z,2.30
2022-08-09T20:39:28.834Z,4.13
2022-08-09T20:42:30.521Z,4.70
2022-08-09T20:45:56.997Z,5.33
2022-08-09T20:49:06.354Z,4.03
2022-08-09T20:52:16.303Z,2.70
2022-08-09T20:55:27.313Z,2.40
2022-08-09T20:58:38.907Z,2.83
2022-08-09T21:01:51.524Z,3.57
2022-08-09T21:05:56.424Z,2.90
2022-08-09T21:08:32.717Z,1.90
2022-08-09T21:15:10.838Z,8.27
2022-08-09T21:18:24.349Z,2.70
2022-08-09T21:21:46.230Z,3.00
2022-08-09T21:25:16.279Z,2.83
2022-08-09T21:28:33.592Z,5.50
2022-08-09T21:31:49.212Z,4.60
2022-08-09T21:34:55.572Z,4.40
2022-08-09T21:38:03.670Z,5.37
2022-08-09T21:41:11.475Z,5.07
2022-08-09T21:44:34.006Z,4.27
2022-08-09T21:47:42.438Z,5.57
2022-08-09T21:50:51.311Z,4.20
2022-08-09T21:53:57.077Z,4.07
2022-08-09T21:57:03.566Z,3.47
2022-08-09T22:00:12.904Z,5.00
2022-08-09T22:03:25.512Z,8.63
2022-08-09T22:06:32.102Z,4.77
2022-08-09T22:09:38.148Z,6.20
2022-08-09T22:12:49.792Z,8.50
2022-08-09T22:15:55.455Z,6.17
2022-08-09T22:19:01.462Z,4.60
2022-08-09T22:22:30.577Z,6.63
2022-08-09T22:26:07.584Z,4.70
2022-08-09T22:29:06.771Z,4.67
2022-08-09T22:32:29.743Z,6.27
2022-08-09T22:36:02.759Z,4.87
2022-08-09T22:39:02.718Z,4.47
2022-08-09T22:42:22.582Z,4.80
2022-08-09T22:48:10.306Z,4.83
2022-08-09T22:49:01.957Z,6.97
2022-08-09T22:52:17.822Z,6.20
2022-08-09T22:55:32.164Z,7.10
2022-08-09T22:58:45.671Z,6.77
2022-08-09T23:01:52.643Z,5.73
2022-08-09T23:04:58.685Z,5.03
2022-08-09T23:08:29.946Z,5.40
2022-08-09T23:11:35.847Z,6.53
2022-08-09T23:14:42.149Z,5.83
2022-08-09T23:17:48.418Z,5.67
2022-08-09T23:20:53.737Z,9.80
2022-08-09T23:24:06.108Z,4.93
2022-08-09T23:27:12.728Z,5.07
2022-08-09T23:30:21.750Z,6.57
2022-08-09T23:33:27.907Z,4.60
2022-08-09T23:36:33.590Z,4.63
2022-08-09T23:39:45.037Z,4.17
2022-08-09T23:42:50.342Z,9.30
2022-08-09T23:45:55.899Z,4.17
2022-08-09T23:49:01.139Z,7.50
2022-08-09T23:52:08.185Z,5.10
2022-08-09T23:55:17.929Z,7.40
2022-08-09T23:58:29.219Z,5.07
